KHMN/HMN METAR and TAF weather

Enter ICAO airport designator
Station Type Date Time Source
KHMN METAR 2019/10/23 11:58 UTC NOAA

KHMN 231158Z AUTO 08004KT 10SM CLR 05/M05 A3009 RMK AO2 SLP151 T00541053 10107 20047 55003 $


Station Type Date Time Source
KHMN Decoded METAR 2019/10/23 11:58 UTC NOAA

Holloman Air Force Base, NM, United States (KHMN) 32-51N 106-06W 1248M
Oct 23, 2019 - 07:58 AM EDT / 2019.10.23 1158 UTC
Wind: from the E (080 degrees) at 5 MPH (4 KT):0
Visibility: 10 mile(s):0
Sky conditions: clear
Temperature: 41.7 F (5.4 C)
Dew Point: 22.5 F (-5.3 C)
Relative Humidity: 45%
Pressure (altimeter): 30.09 in. Hg (1018 hPa)
Pressure tendency: 0.01 inches (0.3 hPa) lower than three hours ago
ob: KHMN 231158Z AUTO 08004KT 10SM CLR 05/M05 A3009 RMK AO2 SLP151 T00541053 10107 20047 55003
cycle: 12

Station Type Date Time Source
KHMN TAF 2019/10/23 09:03 UTC NOAA

TAF KHMN 230900Z 2309/2415 VRB06KT 9999 SKC QNH3011INS
BECMG 2317/2318 32012KT 9999 SKC QNH3007INS
BECMG 2400/2401 VRB06KT 9999 SKC QNH2999INS TX23/2322Z TN03/2313Z

Example: see airport list